Time;durP1;ratioP1;P1;durP2;ratioP2;P2;SDS_P1;SDS_P2;PMS_P1;PMS_P2;Temp;Humidity;BMP_temperature;BMP_pressure;BME280_temperature;BME280_humidity;BME280_pressure;Samples;Min_cycle;Max_cycle;Signal;HPM_P1;HPM_P2
2022/08/10 00:02:21;;;;;;;5.13;4.00;;;14.50;99.90;;;;;;5037226;28;20132;-79
2022/08/10 00:04:46;;;;;;;5.15;3.88;;;14.50;99.90;;;;;;5038602;28;20073;-79
2022/08/10 00:07:12;;;;;;;4.55;3.45;;;14.50;99.90;;;;;;5029950;28;20041;-79
2022/08/10 00:09:38;;;;;;;5.38;3.80;;;14.50;99.90;;;;;;5040163;28;20037;-79
2022/08/10 00:12:03;;;;;;;4.07;3.35;;;14.50;99.90;;;;;;5057736;28;20123;-79
2022/08/10 00:14:29;;;;;;;5.15;3.97;;;14.50;99.90;;;;;;5042249;28;20041;-79
2022/08/10 00:16:55;;;;;;;4.95;3.72;;;14.50;99.90;;;;;;5070239;28;20061;-79
2022/08/10 00:19:20;;;;;;;6.88;3.72;;;14.60;99.90;;;;;;5075157;28;20045;-79
2022/08/10 00:21:46;;;;;;;6.25;4.57;;;14.50;99.90;;;;;;5058104;28;20049;-79
2022/08/10 00:24:12;;;;;;;6.82;3.95;;;14.50;99.90;;;;;;5041787;28;20078;-79
2022/08/10 00:26:38;;;;;;;5.05;4.00;;;14.50;99.90;;;;;;5056948;28;20449;-79
2022/08/10 00:29:03;;;;;;;6.32;4.13;;;14.40;99.90;;;;;;5058114;28;20041;-79
2022/08/10 00:31:29;;;;;;;7.82;5.03;;;14.40;99.90;;;;;;5057518;28;20419;-79
2022/08/10 00:33:54;;;;;;;5.95;4.60;;;14.30;99.90;;;;;;5041899;28;20066;-79
2022/08/10 00:36:20;;;;;;;5.40;4.15;;;14.30;99.90;;;;;;5057549;28;20064;-79
2022/08/10 00:38:45;;;;;;;6.05;4.43;;;14.20;99.90;;;;;;5056573;28;20077;-79
2022/08/10 00:41:11;;;;;;;6.15;4.60;;;14.10;99.90;;;;;;5057887;28;20041;-79
2022/08/10 00:43:36;;;;;;;8.88;6.60;;;14.10;99.90;;;;;;5056792;28;20049;-79
2022/08/10 00:46:02;;;;;;;8.77;5.88;;;14.10;99.90;;;;;;5056806;28;20549;-79
2022/08/10 00:48:29;;;;;;;7.93;6.03;;;14.10;99.90;;;;;;5038738;28;20041;-81
2022/08/10 00:50:56;;;;;;;6.90;5.43;;;14.00;99.90;;;;;;5055572;28;20041;-79
2022/08/10 00:53:22;;;;;;;6.40;4.85;;;14.00;99.90;;;;;;5039741;28;20033;-80
2022/08/10 00:55:48;;;;;;;8.88;5.15;;;14.00;99.90;;;;;;5057242;28;20386;-79
2022/08/10 00:58:14;;;;;;;7.28;5.22;;;14.00;99.90;;;;;;5053192;28;20371;-79
2022/08/10 01:00:41;;;;;;;8.73;6.38;;;14.00;99.90;;;;;;5058085;28;20044;-79
2022/08/10 01:03:07;;;;;;;10.80;5.93;;;14.10;99.90;;;;;;5057527;28;20050;-79
2022/08/10 01:05:39;;;;;;;6.35;5.57;;;14.10;99.90;;;;;;5057836;28;20072;-79
2022/08/10 01:08:34;;;;;;;8.02;4.88;;;14.10;99.90;;;;;;5056850;28;20067;-79
2022/08/10 01:11:14;;;;;;;7.55;5.55;;;14.20;99.90;;;;;;5041624;28;20037;-80
2022/08/10 01:14:09;;;;;;;6.22;4.85;;;14.20;99.90;;;;;;5061591;28;20047;-80
2022/08/10 01:16:40;;;;;;;7.78;5.43;;;14.20;99.90;;;;;;5065900;28;20077;-80
2022/08/10 01:22:08;;;;;;;7.35;5.30;;;14.10;99.90;;;;;;5051140;28;20461;-84
2022/08/10 01:25:10;;;;;;;7.47;5.30;;;14.10;99.90;;;;;;5051908;28;20033;-85
2022/08/10 01:27:58;;;;;;;9.02;5.97;;;14.10;99.90;;;;;;5043518;28;20041;-83
2022/08/10 01:30:28;;;;;;;7.32;5.78;;;14.00;99.90;;;;;;5056411;28;20653;-85
2022/08/10 01:33:05;;;;;;;8.90;5.85;;;14.00;99.90;;;;;;5053951;28;20050;-85
2022/08/10 01:35:37;;;;;;;9.48;7.20;;;14.00;99.90;;;;;;5054798;28;20045;-85
2022/08/10 01:38:05;;;;;;;7.20;5.55;;;14.10;99.90;;;;;;5053623;28;20129;-85
2022/08/10 01:40:47;;;;;;;9.68;6.30;;;14.10;99.90;;;;;;5038482;28;20625;-85
2022/08/10 01:43:16;;;;;;;7.80;6.18;;;14.00;99.90;;;;;;5051477;28;20045;-85
2022/08/10 01:45:44;;;;;;;7.28;5.70;;;14.00;99.90;;;;;;5050306;28;20052;-85
2022/08/10 01:48:29;;;;;;;8.45;6.68;;;14.00;99.90;;;;;;5034033;28;20041;-85
2022/08/10 01:51:22;;;;;;;8.63;6.40;;;13.90;99.90;;;;;;5033845;28;20126;-85
2022/08/10 01:54:03;;;;;;;12.02;7.15;;;14.00;99.90;;;;;;5034404;28;20048;-85
2022/08/10 01:56:35;;;;;;;9.32;5.47;;;14.00;99.90;;;;;;5034920;28;20684;-85
2022/08/10 01:59:06;;;;;;;10.90;7.68;;;14.00;99.90;;;;;;5050650;28;20040;-85
2022/08/10 02:01:41;;;;;;;9.00;6.30;;;14.00;99.90;;;;;;5067952;28;20194;-85
2022/08/10 02:04:09;;;;;;;9.85;6.18;;;13.90;99.90;;;;;;5051231;28;20115;-85
2022/08/10 02:06:40;;;;;;;11.35;7.18;;;13.90;99.90;;;;;;5034290;28;20041;-85
2022/08/10 02:09:07;;;;;;;10.82;8.05;;;14.00;99.90;;;;;;5063335;28;20040;-85
2022/08/10 02:11:35;;;;;;;12.40;7.78;;;13.90;99.90;;;;;;5076732;28;20036;-84
2022/08/10 02:14:02;;;;;;;8.27;6.40;;;14.00;99.90;;;;;;5090282;28;20040;-85
2022/08/10 02:16:29;;;;;;;15.48;7.82;;;13.90;99.90;;;;;;5078427;28;20041;-84
2022/08/10 02:18:56;;;;;;;8.88;6.28;;;13.90;99.90;;;;;;5050652;28;20083;-84
2022/08/10 02:21:23;;;;;;;8.98;6.78;;;13.90;99.90;;;;;;5034087;28;20092;-84
2022/08/10 02:23:50;;;;;;;11.02;7.40;;;13.90;99.90;;;;;;5050505;28;20049;-85
2022/08/10 02:26:16;;;;;;;10.25;7.25;;;13.90;99.90;;;;;;5051470;28;20049;-82
2022/08/10 02:28:43;;;;;;;9.93;7.28;;;13.90;99.90;;;;;;5059730;28;20045;-82
2022/08/10 02:31:12;;;;;;;8.82;6.20;;;13.90;99.90;;;;;;5070759;28;20048;-82
2022/08/10 02:33:41;;;;;;;14.25;7.75;;;13.90;99.90;;;;;;5070677;28;20040;-82
2022/08/10 02:36:10;;;;;;;15.52;7.72;;;14.00;99.90;;;;;;5043746;28;20058;-82
2022/08/10 02:38:49;;;;;;;11.38;7.35;;;14.00;99.90;;;;;;5045281;28;20511;-82
2022/08/10 02:41:28;;;;;;;10.00;7.50;;;14.00;99.90;;;;;;5050854;28;20058;-84
2022/08/10 02:44:00;;;;;;;19.35;10.57;;;14.00;99.90;;;;;;5051013;28;20384;-84
2022/08/10 02:46:36;;;;;;;10.52;7.55;;;14.00;99.90;;;;;;5061641;28;20106;-84
2022/08/10 02:49:04;;;;;;;12.55;7.82;;;14.00;99.90;;;;;;5030411;28;20052;-84
2022/08/10 02:51:41;;;;;;;9.70;7.63;;;14.00;99.90;;;;;;5030912;28;20041;-84
2022/08/10 02:54:12;;;;;;;8.27;6.43;;;14.00;99.90;;;;;;5045290;28;20047;-82
2022/08/10 02:56:45;;;;;;;12.35;7.75;;;13.90;99.90;;;;;;5032385;28;20099;-84
2022/08/10 02:59:18;;;;;;;10.25;7.20;;;13.80;99.90;;;;;;5031344;28;20037;-83
2022/08/10 03:01:47;;;;;;;8.68;6.88;;;13.90;99.90;;;;;;5013936;28;20087;-83
2022/08/10 03:04:23;;;;;;;8.57;6.35;;;13.90;99.90;;;;;;5032590;28;20048;-83
2022/08/10 03:06:52;;;;;;;;;;;13.90;99.90;;;;;;5105955;28;20130;-84
2022/08/10 03:09:19;;;;;;;9.23;6.80;;;13.80;99.90;;;;;;5070636;28;19931;-83
2022/08/10 03:11:46;;;;;;;8.98;6.40;;;13.80;99.90;;;;;;5072143;28;20138;-83
2022/08/10 03:14:13;;;;;;;7.78;6.38;;;13.80;99.90;;;;;;5055780;28;20044;-83
2022/08/10 03:16:41;;;;;;;9.35;7.05;;;13.80;99.90;;;;;;5055048;28;20044;-83
2022/08/10 03:19:07;;;;;;;9.95;6.88;;;13.70;99.90;;;;;;5059823;28;20121;-80
2022/08/10 03:21:33;;;;;;;12.07;8.98;;;13.80;99.90;;;;;;5053963;28;20048;-81
2022/08/10 03:24:01;;;;;;;11.02;7.22;;;13.80;99.90;;;;;;5053253;28;20500;-81
2022/08/10 03:26:29;;;;;;;14.55;9.48;;;13.80;99.90;;;;;;5036073;28;20041;-80
2022/08/10 03:28:56;;;;;;;8.68;6.07;;;13.70;99.90;;;;;;5073325;28;20049;-79
2022/08/10 03:31:22;;;;;;;8.38;6.05;;;13.70;99.90;;;;;;5074112;28;20457;-81
2022/08/10 03:33:48;;;;;;;8.77;6.38;;;13.70;99.90;;;;;;5064495;28;20056;-81
2022/08/10 03:36:14;;;;;;;15.38;7.32;;;13.70;99.90;;;;;;5073468;28;20041;-81
2022/08/10 03:38:42;;;;;;;10.20;6.72;;;13.60;99.90;;;;;;5056496;28;20045;-79
2022/08/10 03:41:11;;;;;;;8.95;7.03;;;13.60;99.90;;;;;;5053633;28;20187;-80
2022/08/10 03:43:38;;;;;;;9.90;6.65;;;13.60;99.90;;;;;;5051456;28;20110;-81
2022/08/10 03:46:08;;;;;;;11.75;8.50;;;13.60;99.90;;;;;;5033361;28;20040;-81
2022/08/10 03:48:37;;;;;;;12.90;8.27;;;13.60;99.90;;;;;;5033586;28;20506;-83
2022/08/10 03:51:03;;;;;;;10.23;6.75;;;13.60;99.90;;;;;;5050133;28;20167;-83
2022/08/10 03:53:29;;;;;;;8.57;6.25;;;13.60;99.90;;;;;;5034841;28;20063;-80
2022/08/10 03:55:55;;;;;;;10.68;8.80;;;13.60;99.90;;;;;;5064909;28;20040;-79
2022/08/10 03:58:21;;;;;;;11.68;8.68;;;13.50;99.90;;;;;;5058525;28;20101;-80
2022/08/10 04:00:49;;;;;;;8.88;6.72;;;13.50;99.90;;;;;;5053115;28;20076;-80
2022/08/10 04:03:16;;;;;;;9.75;6.68;;;13.60;99.90;;;;;;5053760;28;20399;-80
2022/08/10 04:05:42;;;;;;;8.57;7.00;;;13.60;99.90;;;;;;5056136;28;20041;-80
2022/08/10 04:08:08;;;;;;;9.73;7.00;;;13.60;99.90;;;;;;5068964;28;20040;-80
2022/08/10 04:10:33;;;;;;;10.45;6.10;;;13.60;99.90;;;;;;5057573;28;20041;-80
2022/08/10 04:12:59;;;;;;;9.27;6.65;;;13.60;99.90;;;;;;5052573;28;20041;-84
2022/08/10 04:15:25;;;;;;;25.77;18.23;;;13.60;99.90;;;;;;5054665;28;20033;-82
2022/08/10 04:17:50;;;;;;;10.18;8.15;;;13.60;99.90;;;;;;5055825;28;20040;-81
2022/08/10 04:20:31;;;;;;;8.93;6.55;;;13.60;99.90;;;;;;5044859;28;20059;-83
2022/08/10 04:23:02;;;;;;;7.68;5.72;;;13.50;99.90;;;;;;5058238;28;20054;-81
2022/08/10 04:25:29;;;;;;;10.77;6.68;;;13.50;99.90;;;;;;5049678;28;20037;-81
2022/08/10 04:27:56;;;;;;;12.50;8.70;;;13.50;99.90;;;;;;5038272;28;20557;-81
2022/08/10 04:30:22;;;;;;;10.82;6.28;;;13.50;99.90;;;;;;5054011;28;20044;-81
2022/08/10 04:32:53;;;;;;;10.32;6.95;;;13.50;99.90;;;;;;5057643;28;20037;-80
2022/08/10 04:35:21;;;;;;;13.60;7.50;;;13.50;99.90;;;;;;5075510;28;20037;-83
2022/08/10 04:37:48;;;;;;;14.07;9.27;;;13.50;99.90;;;;;;5068041;28;20040;-81
2022/08/10 04:40:18;;;;;;;16.25;10.25;;;13.50;99.90;;;;;;5073578;28;20041;-80
2022/08/10 04:42:45;;;;;;;10.50;7.30;;;13.40;99.90;;;;;;5056977;28;20072;-82
2022/08/10 04:45:12;;;;;;;16.23;11.95;;;13.50;99.90;;;;;;5061671;28;20043;-81
2022/08/10 04:47:38;;;;;;;14.38;8.50;;;13.50;99.90;;;;;;5075608;28;20398;-82
2022/08/10 04:50:04;;;;;;;15.75;7.93;;;13.50;99.90;;;;;;5075742;28;20040;-81
2022/08/10 04:52:30;;;;;;;14.63;8.52;;;13.60;99.90;;;;;;5075475;28;20036;-81
2022/08/10 04:54:55;;;;;;;12.55;8.07;;;13.60;99.90;;;;;;5072378;28;20070;-80
2022/08/10 04:57:21;;;;;;;13.77;8.98;;;13.70;99.90;;;;;;5039624;28;20037;-80
2022/08/10 04:59:47;;;;;;;8.38;6.30;;;13.70;99.90;;;;;;5072709;28;20076;-81
2022/08/10 05:02:13;;;;;;;11.07;6.95;;;13.70;99.90;;;;;;5059570;28;20653;-81
2022/08/10 05:04:39;;;;;;;12.77;7.20;;;13.80;99.90;;;;;;5055869;28;20053;-82
2022/08/10 05:07:23;;;;;;;9.45;7.05;;;13.80;99.90;;;;;;5089066;28;20036;-81
2022/08/10 05:09:49;;;;;;;13.40;9.13;;;13.90;99.90;;;;;;5055575;28;20123;-80
2022/08/10 05:12:15;;;;;;;11.07;7.75;;;14.00;99.90;;;;;;5056659;28;20040;-80
2022/08/10 05:14:41;;;;;;;10.85;7.28;;;14.00;99.90;;;;;;5055627;28;20033;-80
2022/08/10 05:17:06;;;;;;;11.23;8.13;;;14.10;99.90;;;;;;5056041;28;20064;-80
2022/08/10 05:19:32;;;;;;;14.32;8.95;;;14.20;99.90;;;;;;5054086;28;20128;-81
2022/08/10 05:21:57;;;;;;;13.75;9.05;;;14.30;99.90;;;;;;5035159;28;20045;-84
2022/08/10 05:24:23;;;;;;;16.08;8.43;;;14.40;99.90;;;;;;5051693;28;20041;-81
2022/08/10 05:26:49;;;;;;;12.35;8.10;;;14.40;99.90;;;;;;5061143;28;20569;-82
2022/08/10 05:29:14;;;;;;;12.30;8.18;;;14.50;99.90;;;;;;5071891;28;20394;-82
2022/08/10 05:31:40;;;;;;;11.95;7.40;;;14.60;99.90;;;;;;5055075;28;20032;-82
2022/08/10 05:34:05;;;;;;;11.73;8.13;;;14.60;99.90;;;;;;5071962;28;20082;-82
2022/08/10 05:36:32;;;;;;;12.57;7.90;;;14.60;99.90;;;;;;5055475;28;20036;-82
2022/08/10 05:38:59;;;;;;;10.43;7.22;;;14.70;99.90;;;;;;5085023;28;20047;-82
2022/08/10 05:41:27;;;;;;;11.75;7.78;;;14.80;99.90;;;;;;5051470;28;20398;-81
2022/08/10 05:43:53;;;;;;;13.32;6.97;;;14.90;99.90;;;;;;5051112;28;20041;-82
2022/08/10 05:46:19;;;;;;;9.55;7.30;;;15.00;99.90;;;;;;5063718;28;20056;-82
2022/08/10 05:48:44;;;;;;;11.23;6.97;;;15.10;99.90;;;;;;5053387;28;20049;-85
2022/08/10 05:51:10;;;;;;;17.30;9.02;;;15.20;99.90;;;;;;5059763;28;20033;-82
2022/08/10 05:53:37;;;;;;;13.77;8.10;;;15.40;99.90;;;;;;5051447;28;20033;-82
2022/08/10 05:56:04;;;;;;;11.23;6.65;;;15.50;99.90;;;;;;5051224;28;20049;-82
2022/08/10 05:58:30;;;;;;;10.93;8.00;;;15.60;99.90;;;;;;5050997;28;20119;-82
2022/08/10 06:00:58;;;;;;;12.30;7.95;;;15.70;99.90;;;;;;5051150;28;20178;-83
2022/08/10 06:03:32;;;;;;;11.07;8.05;;;15.80;99.90;;;;;;5051432;28;20384;-82
2022/08/10 06:06:01;;;;;;;11.15;8.35;;;16.00;99.90;;;;;;5034841;28;20053;-83
2022/08/10 06:08:31;;;;;;;13.63;8.68;;;16.10;99.90;;;;;;5051019;28;20502;-82
2022/08/10 06:11:00;;;;;;;11.45;7.38;;;16.10;99.90;;;;;;5051068;28;20045;-82
2022/08/10 06:16:14;;;;;;;9.05;6.32;;;16.40;99.90;;;;;;5050839;28;20045;-82
2022/08/10 06:18:42;;;;;;;8.55;6.30;;;16.50;99.90;;;;;;5067209;28;20095;-83
2022/08/10 06:21:08;;;;;;;8.13;5.70;;;16.60;99.90;;;;;;5050936;28;20041;-82
2022/08/10 06:23:35;;;;;;;9.43;6.30;;;16.70;99.90;;;;;;5051114;28;20070;-84
2022/08/10 06:26:02;;;;;;;14.38;7.22;;;16.80;99.90;;;;;;5050366;28;20051;-82
2022/08/10 06:28:31;;;;;;;8.25;6.18;;;16.90;99.90;;;;;;5051077;28;20099;-83
2022/08/10 06:30:59;;;;;;;8.18;6.60;;;17.00;99.90;;;;;;5050951;28;20336;-83
2022/08/10 06:33:25;;;;;;;12.07;6.22;;;17.10;99.90;;;;;;5050649;28;20033;-82
2022/08/10 06:35:53;;;;;;;8.38;6.38;;;17.20;99.90;;;;;;5062244;28;20040;-83
2022/08/10 06:38:22;;;;;;;7.68;5.55;;;17.40;99.90;;;;;;5054207;28;20396;-83
2022/08/10 06:40:51;;;;;;;6.85;5.10;;;17.50;99.90;;;;;;5036303;28;20095;-82
2022/08/10 06:43:19;;;;;;;7.22;4.82;;;17.60;99.90;;;;;;5051138;28;20033;-83
2022/08/10 06:45:49;;;;;;;6.70;5.18;;;17.70;99.90;;;;;;5071282;28;20482;-82
2022/08/10 06:48:40;;;;;;;7.15;4.45;;;17.70;99.90;;;;;;5061243;28;20040;-83
2022/08/10 06:51:12;;;;;;;7.68;4.75;;;17.80;99.90;;;;;;5034647;28;20033;-83
2022/08/10 06:53:45;;;;;;;7.60;4.90;;;17.90;99.90;;;;;;5053753;28;20128;-82
2022/08/10 06:56:13;;;;;;;8.40;5.15;;;18.10;99.90;;;;;;5054369;28;20124;-82
2022/08/10 06:58:48;;;;;;;8.43;5.57;;;18.10;99.90;;;;;;5047900;28;20052;-84
2022/08/10 07:01:17;;;;;;;4.32;3.88;;;18.30;99.90;;;;;;5030515;28;20049;-83
2022/08/10 07:03:46;;;;;;;6.07;3.83;;;18.60;99.90;;;;;;5043135;28;20042;-83
2022/08/10 07:06:14;;;;;;;7.20;4.82;;;18.90;99.90;;;;;;5033603;28;20111;-83
2022/08/10 07:08:41;;;;;;;4.70;3.95;;;19.10;99.90;;;;;;5049482;28;20093;-83
2022/08/10 07:11:08;;;;;;;6.80;3.53;;;19.50;99.90;;;;;;5047240;28;20051;-84
2022/08/10 07:13:36;;;;;;;7.95;3.65;;;19.70;99.90;;;;;;5063315;28;20040;-83
2022/08/10 07:16:06;;;;;;;5.60;3.25;;;20.00;99.90;;;;;;5070942;28;20170;-82
2022/08/10 07:18:32;;;;;;;5.25;3.53;;;20.20;99.90;;;;;;5058312;28;20087;-82
2022/08/10 07:21:00;;;;;;;5.63;3.25;;;20.40;99.90;;;;;;5034667;28;20041;-83
2022/08/10 07:23:28;;;;;;;4.88;2.63;;;20.60;99.90;;;;;;5047993;28;20045;-83
2022/08/10 07:25:55;;;;;;;4.22;2.00;;;20.80;99.90;;;;;;5034869;28;20495;-83
2022/08/10 07:28:21;;;;;;;4.53;1.98;;;21.00;99.90;;;;;;5062029;28;20040;-83
2022/08/10 07:30:49;;;;;;;3.85;2.33;;;21.00;99.90;;;;;;5055959;28;20367;-83
2022/08/10 07:33:18;;;;;;;3.65;2.50;;;21.10;99.90;;;;;;5053313;28;20039;-83
2022/08/10 07:35:46;;;;;;;4.45;2.55;;;21.20;99.90;;;;;;5049160;28;20371;-83
2022/08/10 07:38:21;;;;;;;5.30;2.17;;;21.30;99.90;;;;;;5050255;28;20037;-82
2022/08/10 07:47:07;;;;;;;5.15;2.20;;;21.60;99.90;;;;;;5098217;22;20053;-81
2022/08/10 07:50:02;;;;;;;4.70;1.77;;;21.90;99.90;;;;;;5031400;28;20045;-81
2022/08/10 07:56:25;;;;;;;5.17;2.07;;;22.40;99.90;;;;;;5027593;28;20064;-81
2022/08/10 07:58:58;;;;;;;4.70;2.00;;;22.50;99.90;;;;;;5029180;28;20318;-80
2022/08/10 08:01:31;;;;;;;1.95;1.25;;;22.40;99.90;;;;;;5026242;28;20045;-80
2022/08/10 08:03:59;;;;;;;3.35;1.50;;;22.50;99.90;;;;;;5031752;28;20072;-80
2022/08/10 08:06:26;;;;;;;2.17;1.45;;;22.60;99.90;;;;;;5029693;28;20046;-81
2022/08/10 08:08:51;;;;;;;5.28;1.60;;;22.80;99.90;;;;;;5030691;28;20037;-79
2022/08/10 08:11:18;;;;;;;5.15;1.42;;;22.90;99.90;;;;;;5030424;28;20052;-80
2022/08/10 08:13:45;;;;;;;7.05;1.45;;;23.00;99.90;;;;;;5033652;28;20037;-80
2022/08/10 08:16:12;;;;;;;3.70;1.85;;;23.10;99.90;;;;;;5034162;28;20109;-79
2022/08/10 08:18:38;;;;;;;4.85;1.73;;;23.20;99.90;;;;;;5033216;28;20441;-79
2022/08/10 08:21:04;;;;;;;7.05;1.65;;;23.40;99.90;;;;;;5028559;28;20042;-79
2022/08/10 08:23:31;;;;;;;3.80;0.82;;;23.70;99.90;;;;;;5035612;28;20372;-80
2022/08/10 08:25:57;;;;;;;3.42;1.35;;;24.00;99.90;;;;;;5032959;28;20037;-79
2022/08/10 08:28:25;;;;;;;3.90;1.50;;;24.00;99.90;;;;;;5030877;28;20042;-79
2022/08/10 08:30:52;;;;;;;4.22;1.05;;;24.00;99.90;;;;;;5041436;28;20120;-79
2022/08/10 08:33:18;;;;;;;2.35;1.50;;;24.10;99.90;;;;;;5033542;28;20077;-79
2022/08/10 08:35:44;;;;;;;4.13;0.98;;;24.30;99.90;;;;;;5035602;28;20112;-79
2022/08/10 08:38:11;;;;;;;7.28;1.45;;;24.40;99.90;;;;;;5032506;28;20415;-78
2022/08/10 08:40:41;;;;;;;1.75;1.02;;;24.60;99.90;;;;;;5050096;28;20045;-78
2022/08/10 08:43:31;;;;;;;6.25;1.88;;;24.80;99.90;;;;;;5023522;28;20065;-78
2022/08/10 08:46:09;;;;;;;3.90;1.80;;;25.00;99.90;;;;;;5032254;28;20045;-78
2022/08/10 08:49:09;;;;;;;4.47;1.67;;;25.00;99.90;;;;;;5018431;28;20045;-77
2022/08/10 08:51:43;;;;;;;3.25;1.48;;;25.10;99.90;;;;;;5014178;28;20391;-78
2022/08/10 08:54:27;;;;;;;4.35;1.92;;;25.20;99.90;;;;;;5010326;28;20117;-79
2022/08/10 08:57:25;;;;;;;2.65;1.45;;;25.40;99.90;;;;;;5034190;28;20045;-80
2022/08/10 09:00:42;;;;;;;4.32;1.65;;;25.60;99.90;;;;;;5006072;28;20053;-79
2022/08/10 09:03:36;;;;;;;2.72;1.15;;;25.80;99.90;;;;;;5026705;28;20124;-80
2022/08/10 09:06:22;;;;;;;2.13;0.95;;;26.00;99.90;;;;;;5028209;28;20053;-79
2022/08/10 09:09:17;;;;;;;2.88;1.30;;;26.00;99.90;;;;;;5034529;28;20041;-79
2022/08/10 09:11:59;;;;;;;2.42;1.08;;;26.10;99.90;;;;;;5035961;28;20076;-79
2022/08/10 09:14:43;;;;;;;4.55;1.27;;;26.30;99.90;;;;;;5035481;28;20072;-79
2022/08/10 09:17:19;;;;;;;4.70;1.53;;;26.60;99.90;;;;;;5035326;28;20051;-79
2022/08/10 09:20:08;;;;;;;4.95;0.93;;;26.80;99.90;;;;;;5016179;28;20049;-79
2022/08/10 09:22:42;;;;;;;3.08;1.60;;;27.00;99.80;;;;;;5016948;28;20053;-79
2022/08/10 09:25:17;;;;;;;5.60;1.40;;;27.00;99.70;;;;;;5016092;28;20562;-80
2022/08/10 09:27:45;;;;;;;1.65;0.80;;;27.20;99.10;;;;;;5027863;28;20080;-80
2022/08/10 09:30:17;;;;;;;4.32;0.68;;;27.30;99.90;;;;;;5035130;28;20064;-79
2022/08/10 09:32:50;;;;;;;15.18;1.60;;;27.40;99.90;;;;;;5024112;28;20085;-78
2022/08/10 09:35:25;;;;;;;1.63;0.93;;;27.60;98.40;;;;;;5031361;28;20044;-78
2022/08/10 09:38:21;;;;;;;2.08;0.80;;;27.70;98.10;;;;;;5030925;28;20048;-78
2022/08/10 09:41:02;;;;;;;2.25;0.73;;;27.60;97.30;;;;;;5031706;28;20037;-79
2022/08/10 09:43:58;;;;;;;2.05;0.90;;;27.80;95.20;;;;;;5027984;28;20037;-80
2022/08/10 09:46:46;;;;;;;1.85;0.50;;;27.90;93.10;;;;;;5031131;28;20523;-80
2022/08/10 09:49:35;;;;;;;1.17;0.43;;;28.10;90.70;;;;;;5035901;28;20053;-80
2022/08/10 09:52:21;;;;;;;1.55;0.52;;;28.10;88.30;;;;;;5036960;28;20049;-80
2022/08/10 09:55:06;;;;;;;2.33;0.70;;;28.30;84.00;;;;;;5038114;28;20171;-80
2022/08/10 09:57:35;;;;;;;;;;;28.10;85.40;;;;;;5038069;28;20045;-81
2022/08/10 10:00:10;;;;;;;1.70;0.50;;;28.10;82.10;;;;;;5037484;28;19916;-79
2022/08/10 10:03:13;;;;;;;0.90;0.47;;;28.30;87.40;;;;;;5020867;28;20037;-80
2022/08/10 10:05:51;;;;;;;1.25;0.30;;;28.10;71.90;;;;;;5038330;28;20550;-80
2022/08/10 10:08:37;;;;;;;2.20;0.55;;;28.20;74.30;;;;;;5020873;28;20124;-80
2022/08/10 10:11:19;;;;;;;1.35;0.70;;;28.40;72.50;;;;;;5020450;28;20053;-80
2022/08/10 10:13:56;;;;;;;1.00;0.52;;;28.40;70.90;;;;;;5036051;28;20042;-80
2022/08/10 10:16:32;;;;;;;3.17;0.50;;;28.50;68.50;;;;;;5035277;28;20040;-79
2022/08/10 10:19:13;;;;;;;1.13;0.30;;;28.90;71.10;;;;;;5036434;28;20049;-80
2022/08/10 10:21:50;;;;;;;1.42;0.40;;;28.80;64.30;;;;;;5036068;28;20081;-79
2022/08/10 10:24:29;;;;;;;2.17;0.40;;;28.60;63.00;;;;;;5034645;28;20451;-80
2022/08/10 10:27:46;;;;;;;2.10;0.40;;;28.60;63.20;;;;;;5035683;28;20049;-80
2022/08/10 10:30:14;;;;;;;1.65;0.32;;;28.80;65.30;;;;;;4991193;28;20042;-80
2022/08/10 10:33:08;;;;;;;3.03;0.40;;;29.00;63.90;;;;;;5019183;28;20531;-79
2022/08/10 10:36:04;;;;;;;0.85;0.25;;;28.90;61.40;;;;;;5037750;28;20057;-81
2022/08/10 10:38:36;;;;;;;1.48;0.30;;;29.20;62.00;;;;;;5002785;28;20057;-81
2022/08/10 10:41:29;;;;;;;1.60;0.40;;;29.20;60.70;;;;;;5036202;28;20056;-80
2022/08/10 10:44:19;;;;;;;1.27;0.40;;;29.40;60.30;;;;;;5032978;28;20029;-81
2022/08/10 10:46:51;;;;;;;1.08;0.68;;;29.50;60.50;;;;;;5033606;28;20037;-81
2022/08/10 10:49:36;;;;;;;2.25;0.30;;;29.50;59.90;;;;;;5034808;28;20089;-81
2022/08/10 10:52:31;;;;;;;2.00;0.35;;;29.60;58.90;;;;;;5028363;28;20065;-80
2022/08/10 10:55:17;;;;;;;3.47;0.85;;;29.50;56.30;;;;;;5015593;28;20137;-81
2022/08/10 10:58:05;;;;;;;2.05;0.40;;;29.40;57.60;;;;;;5027475;28;20097;-81
2022/08/10 11:00:45;;;;;;;1.30;0.30;;;29.70;57.40;;;;;;5031395;28;20072;-81
2022/08/10 11:03:35;;;;;;;1.95;0.20;;;29.90;57.10;;;;;;5029152;28;20045;-82
2022/08/10 11:06:17;;;;;;;0.57;0.20;;;30.00;55.90;;;;;;5026403;28;20042;-81
2022/08/10 11:08:51;;;;;;;5.18;0.30;;;30.00;54.70;;;;;;5027151;28;20056;-82
2022/08/10 11:11:24;;;;;;;1.60;0.55;;;29.90;55.90;;;;;;5027306;28;20048;-80
2022/08/10 11:14:15;;;;;;;1.23;0.40;;;29.90;55.90;;;;;;5027318;28;20487;-79
2022/08/10 11:16:48;;;;;;;2.00;0.32;;;29.80;56.10;;;;;;5024967;28;20045;-80
2022/08/10 11:19:33;;;;;;;1.10;0.30;;;29.90;56.20;;;;;;5021793;28;20045;-80
2022/08/10 11:22:17;;;;;;;2.15;0.57;;;30.10;56.40;;;;;;5027945;28;20037;-81
2022/08/10 11:24:54;;;;;;;0.70;0.30;;;30.30;55.00;;;;;;5023540;28;20518;-80
2022/08/10 11:27:42;;;;;;;1.95;0.30;;;30.70;55.10;;;;;;5021302;28;20297;-81
2022/08/10 11:30:11;;;;;;;0.73;0.30;;;30.70;53.80;;;;;;5026937;28;20210;-81
2022/08/10 11:32:52;;;;;;;3.28;0.52;;;31.00;54.10;;;;;;5032753;28;20041;-81
2022/08/10 11:35:48;;;;;;;1.98;0.50;;;31.20;52.50;;;;;;5034968;28;20045;-81
2022/08/10 11:38:40;;;;;;;2.00;0.47;;;31.40;50.70;;;;;;5024524;28;20068;-81
2022/08/10 11:41:28;;;;;;;2.00;0.30;;;31.40;51.50;;;;;;5046314;28;20046;-81
2022/08/10 11:44:12;;;;;;;1.58;0.25;;;31.00;51.60;;;;;;5029443;28;20049;-81
2022/08/10 11:46:43;;;;;;;0.80;0.20;;;31.20;51.70;;;;;;5027846;28;20046;-81
2022/08/10 11:49:16;;;;;;;2.17;0.30;;;31.00;50.10;;;;;;5015491;28;20049;-81
2022/08/10 11:51:48;;;;;;;0.35;0.17;;;31.10;49.50;;;;;;5030349;28;20045;-82
2022/08/10 11:54:30;;;;;;;1.02;0.20;;;31.50;49.60;;;;;;5022548;28;20121;-82
2022/08/10 11:56:58;;;;;;;2.55;0.30;;;31.70;47.50;;;;;;5007173;28;20579;-81
2022/08/10 12:02:15;;;;;;;1.98;0.28;;;31.40;49.70;;;;;;5029897;28;20042;-81
2022/08/10 12:04:46;;;;;;;2.78;0.50;;;31.50;49.80;;;;;;5024693;28;20113;-80
2022/08/10 12:07:12;;;;;;;1.77;0.45;;;32.00;49.20;;;;;;5026078;28;20406;-81
2022/08/10 12:09:39;;;;;;;1.00;0.20;;;32.10;49.50;;;;;;5023388;28;20060;-81
2022/08/10 12:12:06;;;;;;;2.88;0.35;;;32.00;48.80;;;;;;5025567;28;20034;-82
2022/08/10 12:14:54;;;;;;;2.80;0.38;;;32.00;49.80;;;;;;5028671;28;20143;-83
2022/08/10 12:17:25;;;;;;;1.48;0.38;;;32.40;47.70;;;;;;5024893;28;20113;-82
2022/08/10 12:20:04;;;;;;;1.38;0.20;;;32.60;48.00;;;;;;5028192;28;20029;-82
2022/08/10 12:22:55;;;;;;;1.23;0.20;;;32.60;47.20;;;;;;5017617;28;20045;-82
2022/08/10 12:25:31;;;;;;;3.05;0.20;;;32.70;46.50;;;;;;5026513;28;20045;-81
2022/08/10 12:28:04;;;;;;;1.58;0.20;;;32.50;44.40;;;;;;5025462;28;20053;-82
2022/08/10 12:30:34;;;;;;;0.90;0.20;;;32.20;46.10;;;;;;5025650;28;20133;-82
2022/08/10 12:33:31;;;;;;;1.65;0.52;;;32.30;46.30;;;;;;5028071;28;20045;-82
2022/08/10 12:36:00;;;;;;;0.28;0.10;;;32.50;46.10;;;;;;5028575;28;20043;-83
2022/08/10 12:38:55;;;;;;;3.15;0.50;;;32.60;46.30;;;;;;5033422;28;20049;-82
2022/08/10 12:41:28;;;;;;;1.60;0.20;;;32.90;45.90;;;;;;5044004;28;20519;-81
2022/08/10 12:44:11;;;;;;;3.88;0.32;;;32.70;46.30;;;;;;5025185;28;20037;-81
2022/08/10 12:46:58;;;;;;;0.43;0.20;;;33.00;45.50;;;;;;5022358;28;20116;-81
2022/08/10 12:49:36;;;;;;;0.70;0.20;;;33.10;43.80;;;;;;5023824;28;20296;-82
2022/08/10 12:52:17;;;;;;;1.65;0.40;;;32.90;44.00;;;;;;5021954;28;20418;-82
2022/08/10 12:54:43;;;;;;;0.93;0.35;;;32.70;44.10;;;;;;5017663;28;20671;-81
2022/08/10 12:57:13;;;;;;;0.73;0.30;;;32.50;44.80;;;;;;5026142;28;20044;-81
2022/08/10 12:59:49;;;;;;;0.85;0.43;;;32.50;45.50;;;;;;5024535;28;20045;-81
2022/08/10 13:02:25;;;;;;;1.40;0.40;;;32.60;44.70;;;;;;5022760;28;20065;-82
2022/08/10 13:04:53;;;;;;;0.38;0.20;;;32.80;44.70;;;;;;5027723;28;20095;-82
2022/08/10 13:07:24;;;;;;;0.70;0.30;;;32.90;44.50;;;;;;5027966;28;20506;-82
2022/08/10 13:09:51;;;;;;;1.02;0.20;;;33.20;44.30;;;;;;5029395;28;20220;-82
2022/08/10 13:12:18;;;;;;;1.27;0.22;;;33.40;44.60;;;;;;5032151;28;20034;-82
2022/08/10 13:14:44;;;;;;;1.55;0.30;;;33.40;44.60;;;;;;5031574;28;20042;-81
2022/08/10 13:17:11;;;;;;;0.93;0.20;;;33.30;44.50;;;;;;5033320;28;20048;-82
2022/08/10 13:19:40;;;;;;;1.10;0.20;;;33.20;44.30;;;;;;5033367;28;20029;-81
2022/08/10 13:22:08;;;;;;;1.55;0.20;;;33.10;44.20;;;;;;5033469;28;20045;-82
2022/08/10 13:24:38;;;;;;;1.00;0.50;;;33.10;45.40;;;;;;5025519;28;20088;-82
2022/08/10 13:27:07;;;;;;;0.80;0.20;;;33.00;45.20;;;;;;5027076;28;20048;-82
2022/08/10 13:29:41;;;;;;;0.90;0.20;;;33.20;45.00;;;;;;5033887;28;20080;-83
2022/08/10 13:32:08;;;;;;;;;;;33.50;44.90;;;;;;5034324;28;20049;-82
2022/08/10 13:34:35;;;;;;;2.00;0.28;;;33.80;44.10;;;;;;5034215;28;20552;-82